createdAt,value
2023-02-06T00:00:56.374Z,97356.22
2023-02-06T00:03:25.280Z,97365.03
2023-02-06T00:05:57.829Z,97363.38
2023-02-06T00:08:25.596Z,97357.63
2023-02-06T00:10:54.640Z,97361.22
2023-02-06T00:13:23.118Z,97368.22
2023-02-06T00:15:50.860Z,97368.41
2023-02-06T00:18:18.489Z,97374.56
2023-02-06T00:20:47.744Z,97365.59
2023-02-06T00:23:15.564Z,97364.31
2023-02-06T00:25:43.467Z,97369.69
2023-02-06T00:28:11.095Z,97363.00
2023-02-06T00:30:39.467Z,97368.69
2023-02-06T00:33:07.404Z,97365.22
2023-02-06T00:35:36.219Z,97380.88
2023-02-06T00:38:06.676Z,97372.47
2023-02-06T00:40:34.609Z,97379.19
2023-02-06T00:43:02.204Z,97372.31
2023-02-06T00:45:30.125Z,97378.53
2023-02-06T00:47:57.870Z,97392.13
2023-02-06T00:50:26.097Z,97384.22
2023-02-06T00:52:53.853Z,97380.66
2023-02-06T00:55:23.877Z,97382.34
2023-02-06T00:57:51.440Z,97380.66
2023-02-06T01:00:19.941Z,97385.88
2023-02-06T01:02:47.722Z,97388.69
2023-02-06T01:05:15.981Z,97390.44
2023-02-06T01:07:43.586Z,97377.53
2023-02-06T01:10:13.258Z,97384.75
2023-02-06T01:12:43.527Z,97384.00
2023-02-06T01:15:13.535Z,97392.84
2023-02-06T01:17:42.626Z,97396.47
2023-02-06T01:20:14.439Z,97401.56
2023-02-06T01:22:42.996Z,97404.28
2023-02-06T01:25:12.879Z,97396.66
2023-02-06T01:27:42.341Z,97404.47
2023-02-06T01:30:11.577Z,97406.22
2023-02-06T01:32:41.208Z,97399.34
2023-02-06T01:35:10.869Z,97403.88
2023-02-06T01:37:40.052Z,97398.31
2023-02-06T01:40:10.484Z,97393.63
2023-02-06T01:42:39.253Z,97396.56
2023-02-06T01:45:38.889Z,97398.50
2023-02-06T01:48:11.404Z,97399.53
2023-02-06T01:51:06.634Z,97388.94
2023-02-06T01:53:35.980Z,97399.19
2023-02-06T01:56:07.783Z,97382.03
2023-02-06T01:58:39.379Z,97378.53
2023-02-06T02:01:09.462Z,97382.31
2023-02-06T02:03:40.558Z,97377.38
2023-02-06T02:06:11.566Z,97374.94
2023-02-06T02:08:41.807Z,97369.75
2023-02-06T02:11:12.325Z,97370.66
2023-02-06T02:13:40.427Z,97366.41
2023-02-06T02:16:16.429Z,97367.13
2023-02-06T02:18:58.868Z,97363.78
2023-02-06T02:21:54.153Z,97359.44
2023-02-06T02:24:31.890Z,97350.78
2023-02-06T02:27:41.238Z,97354.88
2023-02-06T02:30:35.996Z,97371.31
2023-02-06T02:33:54.491Z,97363.44
2023-02-06T02:36:29.309Z,97353.69
2023-02-06T02:39:05.031Z,97354.53
2023-02-06T02:41:43.666Z,97361.41
2023-02-06T02:44:17.529Z,97371.63
2023-02-06T02:46:49.344Z,97366.25
2023-02-06T02:49:20.945Z,97368.69
2023-02-06T02:51:52.640Z,97365.88
2023-02-06T02:54:20.864Z,97369.25
2023-02-06T02:56:48.690Z,97368.34
2023-02-06T02:59:24.034Z,97364.22
2023-02-06T03:01:58.186Z,97368.50
2023-02-06T03:04:30.917Z,97364.06
2023-02-06T03:07:09.504Z,97374.47
2023-02-06T03:09:51.125Z,97365.34
2023-02-06T03:12:24.677Z,97374.81
2023-02-06T03:14:58.106Z,97374.91
2023-02-06T03:17:34.227Z,97374.81
2023-02-06T03:20:04.004Z,97382.53
2023-02-06T03:22:35.559Z,97386.72
2023-02-06T03:25:05.621Z,97398.16
2023-02-06T03:27:35.293Z,97404.19
2023-02-06T03:30:05.246Z,97409.25
2023-02-06T03:32:38.618Z,97409.25
2023-02-06T03:35:11.192Z,97407.28
2023-02-06T03:37:41.279Z,97410.25
2023-02-06T03:40:10.109Z,97404.19
2023-02-06T03:42:41.886Z,97408.38
2023-02-06T03:45:16.859Z,97399.75
2023-02-06T03:47:47.648Z,97407.19
2023-02-06T03:50:16.328Z,97413.44
2023-02-06T03:52:50.071Z,97411.84
2023-02-06T03:55:21.870Z,97404.88
2023-02-06T03:57:53.082Z,97402.44
2023-02-06T04:00:21.840Z,97408.25
2023-02-06T04:02:54.712Z,97409.38
2023-02-06T04:05:22.409Z,97399.72
2023-02-06T04:07:53.132Z,97401.56
2023-02-06T04:10:21.168Z,97403.47
2023-02-06T04:12:49.030Z,97412.97
2023-02-06T04:15:16.885Z,97401.31
2023-02-06T04:17:58.775Z,97405.78
2023-02-06T04:20:28.037Z,97399.91
2023-02-06T04:22:57.686Z,97404.28
2023-02-06T04:25:25.794Z,97398.34
2023-02-06T04:27:53.878Z,97399.16
2023-02-06T04:30:22.261Z,97399.22
2023-02-06T04:32:50.279Z,97399.41
2023-02-06T04:35:18.819Z,97401.09
2023-02-06T04:37:46.450Z,97389.66
2023-02-06T04:40:15.716Z,97392.94
2023-02-06T04:42:43.295Z,97376.09
2023-02-06T04:45:11.560Z,97375.16
2023-02-06T04:47:39.497Z,97364.66
2023-02-06T04:50:08.077Z,97363.81
2023-02-06T04:52:35.688Z,97357.78
2023-02-06T04:55:03.566Z,97356.00
2023-02-06T04:57:32.646Z,97361.13
2023-02-06T05:00:00.567Z,97361.91
2023-02-06T05:02:28.296Z,97362.97
2023-02-06T05:04:56.373Z,97366.50
2023-02-06T05:07:24.927Z,97360.56
2023-02-06T05:09:52.770Z,97367.78
2023-02-06T05:12:20.342Z,97372.22
2023-02-06T05:14:49.801Z,97379.13
2023-02-06T05:17:17.722Z,97367.78
2023-02-06T05:19:45.530Z,97373.91
2023-02-06T05:22:13.165Z,97368.88
2023-02-06T05:24:40.768Z,97362.84
2023-02-06T05:27:08.395Z,97362.34
2023-02-06T05:29:35.989Z,97359.94
2023-02-06T05:32:05.174Z,97362.53
2023-02-06T05:34:33.072Z,97365.28
2023-02-06T05:37:00.758Z,97374.94
2023-02-06T05:39:28.734Z,97361.69
2023-02-06T05:41:56.344Z,97350.44
2023-02-06T05:44:24.895Z,97353.09
2023-02-06T05:46:53.131Z,97364.53
2023-02-06T05:49:22.080Z,97368.06
2023-02-06T05:51:50.022Z,97362.19
2023-02-06T05:54:18.431Z,97361.50
2023-02-06T05:56:46.214Z,97347.94
2023-02-06T05:59:13.822Z,97343.81
2023-02-06T06:01:41.497Z,97351.09
2023-02-06T06:04:09.485Z,97339.22
2023-02-06T06:06:39.110Z,97337.88
2023-02-06T06:09:06.860Z,97338.72
2023-02-06T06:11:35.423Z,97355.47
2023-02-06T06:14:03.143Z,97341.13
2023-02-06T06:16:32.161Z,97350.06
2023-02-06T06:18:59.773Z,97349.63
2023-02-06T06:21:27.845Z,97343.19
2023-02-06T06:23:57.162Z,97343.31
2023-02-06T06:26:25.281Z,97350.53
2023-02-06T06:28:52.948Z,97352.53
2023-02-06T06:31:20.984Z,97364.91
2023-02-06T06:33:48.643Z,97367.91
2023-02-06T06:36:16.638Z,97378.50
2023-02-06T06:38:44.271Z,97374.41
2023-02-06T06:41:13.831Z,97367.75
2023-02-06T06:43:42.228Z,97366.31
2023-02-06T06:46:10.366Z,97369.75
2023-02-06T06:48:38.645Z,97370.75
2023-02-06T06:51:06.646Z,97375.94
2023-02-06T06:53:34.562Z,97378.53
2023-02-06T06:56:06.592Z,97385.47
2023-02-06T06:58:35.993Z,97375.88
2023-02-06T07:01:05.256Z,97377.63
2023-02-06T07:03:33.027Z,97373.34
2023-02-06T07:06:00.997Z,97379.38
2023-02-06T07:08:29.933Z,97375.03
2023-02-06T07:10:58.582Z,97368.06
2023-02-06T07:13:26.248Z,97372.09
2023-02-06T07:15:55.579Z,97378.84
2023-02-06T07:18:23.607Z,97374.41
2023-02-06T07:20:51.451Z,97365.59
2023-02-06T07:23:19.489Z,97369.22
2023-02-06T07:25:47.100Z,97370.41
2023-02-06T07:28:14.728Z,97376.13
2023-02-06T07:30:42.387Z,97369.78
2023-02-06T07:33:11.584Z,97375.41
2023-02-06T07:35:40.276Z,97371.66
2023-02-06T07:38:08.863Z,97380.03
2023-02-06T07:40:45.039Z,97388.38
2023-02-06T07:43:13.854Z,97377.97
2023-02-06T07:45:41.548Z,97390.66
2023-02-06T07:48:11.544Z,97405.06
2023-02-06T07:50:39.435Z,97405.75
2023-02-06T07:53:07.818Z,97396.72
2023-02-06T07:55:37.805Z,97402.50
2023-02-06T07:58:05.969Z,97399.25
2023-02-06T08:00:33.568Z,97399.44
2023-02-06T08:03:01.564Z,97402.28
2023-02-06T08:05:31.189Z,97399.53
2023-02-06T08:07:59.768Z,97414.50
2023-02-06T08:10:28.394Z,97424.56
2023-02-06T08:12:56.505Z,97415.13
2023-02-06T08:15:25.164Z,97414.56
2023-02-06T08:17:52.851Z,97403.59
2023-02-06T08:20:20.446Z,97402.19
2023-02-06T08:22:49.933Z,97402.66
2023-02-06T08:25:17.565Z,97405.81
2023-02-06T08:27:45.366Z,97405.81
2023-02-06T08:30:14.294Z,97411.53
2023-02-06T08:32:42.237Z,97390.34
2023-02-06T08:35:09.873Z,97403.41
2023-02-06T08:37:37.462Z,97393.91
2023-02-06T08:40:07.542Z,97388.03
2023-02-06T08:42:36.115Z,97397.88
2023-02-06T08:45:03.844Z,97387.31
2023-02-06T08:47:31.990Z,97379.84
2023-02-06T08:50:01.579Z,97378.34
2023-02-06T08:52:31.153Z,97382.50
2023-02-06T08:54:58.833Z,97386.38
2023-02-06T08:57:27.776Z,97387.34
2023-02-06T08:59:55.684Z,97390.53
2023-02-06T09:02:24.052Z,97378.00
2023-02-06T09:04:51.849Z,97368.06
2023-02-06T09:07:19.710Z,97373.63
2023-02-06T09:09:47.290Z,97366.06
2023-02-06T09:12:16.227Z,97380.09
2023-02-06T09:14:45.452Z,97380.34
2023-02-06T09:17:13.598Z,97376.88
2023-02-06T09:19:41.443Z,97382.53
2023-02-06T09:22:09.015Z,97380.38
2023-02-06T09:24:37.146Z,97367.91
2023-02-06T09:27:04.891Z,97377.31
2023-02-06T09:29:33.133Z,97377.25
2023-02-06T09:32:02.372Z,97378.25
2023-02-06T09:34:30.255Z,97382.50
2023-02-06T09:36:58.056Z,97382.44
2023-02-06T09:39:26.207Z,97374.03
2023-02-06T09:41:55.811Z,97374.91
2023-02-06T09:44:28.726Z,97377.38
2023-02-06T09:47:02.190Z,97384.81
2023-02-06T09:49:37.988Z,97377.81
2023-02-06T09:52:23.460Z,97377.34
2023-02-06T09:55:02.060Z,97365.09
2023-02-06T09:57:39.018Z,97359.25
2023-02-06T10:00:17.247Z,97362.03
2023-02-06T10:03:17.707Z,97359.69
2023-02-06T10:05:52.649Z,97358.13
2023-02-06T10:08:25.438Z,97368.34
2023-02-06T10:10:56.031Z,97354.94
2023-02-06T10:13:31.285Z,97355.78
2023-02-06T10:16:20.506Z,97342.31
2023-02-06T10:18:53.248Z,97338.56
2023-02-06T10:21:29.537Z,97336.81
2023-02-06T10:24:01.818Z,97334.44
2023-02-06T10:26:30.129Z,97320.81
2023-02-06T10:29:00.774Z,97308.84
2023-02-06T10:31:59.727Z,97305.06
2023-02-06T10:34:47.423Z,97304.50
2023-02-06T10:37:30.629Z,97294.13
2023-02-06T10:40:19.673Z,97302.38
2023-02-06T10:42:55.625Z,97302.19
2023-02-06T10:45:36.330Z,97298.25
2023-02-06T10:48:13.295Z,97300.03
2023-02-06T10:50:47.615Z,97296.81
2023-02-06T10:53:21.441Z,97295.00
2023-02-06T10:55:55.672Z,97283.38
2023-02-06T10:58:28.118Z,97289.00
2023-02-06T11:00:57.434Z,97286.00
2023-02-06T11:03:30.420Z,97279.53
2023-02-06T11:05:59.400Z,97284.06
2023-02-06T11:08:31.718Z,97280.66
2023-02-06T11:10:59.664Z,97270.28
2023-02-06T11:13:29.685Z,97269.13
2023-02-06T11:16:03.249Z,97267.34
2023-02-06T11:18:34.223Z,97268.41
2023-02-06T11:21:02.758Z,97274.69
2023-02-06T11:23:34.607Z,97273.66
2023-02-06T11:26:10.883Z,97272.00
2023-02-06T11:28:42.382Z,97274.75
2023-02-06T11:31:10.904Z,97274.50
2023-02-06T11:33:48.547Z,97271.16
2023-02-06T11:36:28.729Z,97263.59
2023-02-06T11:39:00.365Z,97258.81
2023-02-06T11:41:29.298Z,97251.09
2023-02-06T11:44:02.497Z,97242.72
2023-02-06T11:46:33.168Z,97240.53
2023-02-06T11:49:07.218Z,97242.63
2023-02-06T11:51:48.960Z,97243.34
2023-02-06T11:54:27.969Z,97235.59
2023-02-06T11:56:58.121Z,97248.09
2023-02-06T11:59:27.366Z,97239.75
2023-02-06T12:01:55.812Z,97243.13
2023-02-06T12:04:25.865Z,97247.34
2023-02-06T12:06:59.107Z,97248.69
2023-02-06T12:09:28.761Z,97243.47
2023-02-06T12:12:01.541Z,97234.19
2023-02-06T12:14:38.067Z,97229.09
2023-02-06T12:17:16.367Z,97221.34
2023-02-06T12:19:49.621Z,97231.97
2023-02-06T12:22:21.848Z,97231.63
2023-02-06T12:24:54.617Z,97225.19
2023-02-06T12:27:28.676Z,97217.31
2023-02-06T12:30:02.727Z,97221.59
2023-02-06T12:32:34.120Z,97220.03
2023-02-06T12:35:15.905Z,97222.53
2023-02-06T12:37:48.833Z,97233.63
2023-02-06T12:40:30.612Z,97238.75
2023-02-06T12:43:02.511Z,97226.50
2023-02-06T12:45:41.181Z,97209.00
2023-02-06T12:48:16.957Z,97202.25
2023-02-06T12:50:50.083Z,97197.25
2023-02-06T12:53:21.116Z,97201.59
2023-02-06T12:55:56.403Z,97192.84
2023-02-06T12:58:28.991Z,97190.50
2023-02-06T13:01:27.852Z,97178.13
2023-02-06T13:04:00.150Z,97178.84
2023-02-06T13:06:30.875Z,97153.56
2023-02-06T13:09:01.869Z,97154.13
2023-02-06T13:11:35.463Z,97151.50
2023-02-06T13:14:07.124Z,97155.69
2023-02-06T13:16:40.154Z,97154.31
2023-02-06T13:19:22.002Z,97168.13
2023-02-06T13:21:55.237Z,97165.63
2023-02-06T13:24:22.809Z,97161.47
2023-02-06T13:27:11.748Z,97167.97
2023-02-06T13:29:41.530Z,97171.53
2023-02-06T13:32:53.636Z,97170.94
2023-02-06T13:35:25.697Z,97169.72
2023-02-06T13:38:13.389Z,97168.47
2023-02-06T13:40:41.085Z,97170.56
2023-02-06T13:43:19.456Z,97172.38
2023-02-06T13:45:51.842Z,97165.81
2023-02-06T13:48:46.918Z,97170.09
2023-02-06T13:51:33.465Z,97170.44
2023-02-06T13:54:31.589Z,97161.66
2023-02-06T13:57:21.059Z,97166.28
2023-02-06T13:59:52.936Z,97167.75
2023-02-06T14:02:27.702Z,97172.03
2023-02-06T14:04:55.569Z,97179.25
2023-02-06T14:07:50.657Z,97168.19
2023-02-06T14:10:37.339Z,97170.06
2023-02-06T14:13:20.506Z,97164.63
2023-02-06T14:15:58.754Z,97168.69
2023-02-06T14:18:38.617Z,97165.34
2023-02-06T14:21:19.341Z,97164.22
2023-02-06T14:24:11.650Z,97174.03
2023-02-06T14:26:49.292Z,97166.69
2023-02-06T14:29:25.838Z,97163.75
2023-02-06T14:32:19.024Z,97180.25
2023-02-06T14:35:03.554Z,97174.81
2023-02-06T14:37:57.136Z,97175.25
2023-02-06T14:40:27.165Z,97176.41
2023-02-06T14:42:58.454Z,97177.16
2023-02-06T14:45:33.812Z,97180.06
2023-02-06T14:48:19.304Z,97165.13
2023-02-06T14:50:51.243Z,97164.22
2023-02-06T14:53:24.176Z,97158.19
2023-02-06T14:55:51.802Z,97170.91
2023-02-06T14:58:25.681Z,97166.09
2023-02-06T15:00:53.754Z,97165.28
2023-02-06T15:03:28.321Z,97166.50
2023-02-06T15:06:02.080Z,97167.13
2023-02-06T15:08:32.535Z,97172.19
2023-02-06T15:11:02.303Z,97172.91
2023-02-06T15:13:35.136Z,97171.88
2023-02-06T15:16:05.317Z,97180.88
2023-02-06T15:18:35.776Z,97172.72
2023-02-06T15:21:06.287Z,97181.22
2023-02-06T15:23:51.029Z,97180.38
2023-02-06T15:26:29.035Z,97174.56
2023-02-06T15:28:59.218Z,97178.59
2023-02-06T15:31:28.487Z,97179.44
2023-02-06T15:34:00.116Z,97174.75
2023-02-06T15:36:32.156Z,97186.47
2023-02-06T15:39:00.942Z,97176.41
2023-02-06T15:41:30.946Z,97174.97
2023-02-06T15:44:03.308Z,97174.63
2023-02-06T15:46:32.000Z,97164.03
2023-02-06T15:49:01.345Z,97173.94
2023-02-06T15:51:31.458Z,97166.63
2023-02-06T15:54:10.945Z,97164.16
2023-02-06T15:56:42.665Z,97159.09
2023-02-06T15:59:17.560Z,97161.09
2023-02-06T16:01:45.219Z,97158.75
2023-02-06T16:04:18.750Z,97156.50
2023-02-06T16:06:47.577Z,97159.84
2023-02-06T16:09:21.696Z,97164.69
2023-02-06T16:11:56.144Z,97169.53
2023-02-06T16:14:31.467Z,97165.03
2023-02-06T16:17:01.973Z,97173.59
2023-02-06T16:19:47.970Z,97178.94
2023-02-06T16:22:24.789Z,97178.44
2023-02-06T16:24:55.275Z,97173.50
2023-02-06T16:27:25.523Z,97172.13
2023-02-06T16:29:55.487Z,97171.25
2023-02-06T16:32:25.730Z,97163.63
2023-02-06T16:34:55.534Z,97165.84
2023-02-06T16:37:25.029Z,97160.91
2023-02-06T16:39:53.593Z,97161.34
2023-02-06T16:42:23.111Z,97164.22
2023-02-06T16:44:53.372Z,97163.31
2023-02-06T16:47:22.867Z,97168.47
2023-02-06T16:49:51.843Z,97174.47
2023-02-06T16:52:23.805Z,97180.63
2023-02-06T16:54:51.882Z,97182.47
2023-02-06T16:57:32.805Z,97183.41
2023-02-06T17:00:00.636Z,97193.72
2023-02-06T17:02:29.227Z,97185.81
2023-02-06T17:04:57.846Z,97189.84
2023-02-06T17:07:31.762Z,97184.19
2023-02-06T17:10:00.684Z,97192.72
2023-02-06T17:12:29.243Z,97198.50
2023-02-06T17:14:57.079Z,97201.84
2023-02-06T17:17:25.130Z,97211.97
2023-02-06T17:19:54.203Z,97211.88
2023-02-06T17:22:22.084Z,97211.97
2023-02-06T17:24:51.289Z,97213.16
2023-02-06T17:27:22.489Z,97213.88
2023-02-06T17:29:51.205Z,97212.22
2023-02-06T17:32:22.097Z,97218.00
2023-02-06T17:34:51.070Z,97211.13
2023-02-06T17:37:21.488Z,97220.59
2023-02-06T17:39:52.611Z,97226.56
2023-02-06T17:42:23.136Z,97229.16
2023-02-06T17:44:51.724Z,97226.56
2023-02-06T17:47:19.352Z,97221.53
2023-02-06T17:49:47.634Z,97221.69
2023-02-06T17:52:16.023Z,97223.38
2023-02-06T17:54:44.345Z,97215.25
2023-02-06T17:57:14.230Z,97217.22
2023-02-06T17:59:42.038Z,97230.97
2023-02-06T18:02:12.429Z,97225.19
2023-02-06T18:04:40.486Z,97231.69
2023-02-06T18:07:08.602Z,97235.94
2023-02-06T18:09:36.297Z,97225.47
2023-02-06T18:12:04.855Z,97220.28
2023-02-06T18:14:35.283Z,97219.28
2023-02-06T18:17:04.031Z,97206.84
2023-02-06T18:19:31.765Z,97198.59
2023-02-06T18:22:00.159Z,97182.50
2023-02-06T18:24:27.780Z,97193.91
2023-02-06T18:26:55.345Z,97195.75
2023-02-06T18:29:22.934Z,97208.75
2023-02-06T18:31:52.316Z,97216.81
2023-02-06T18:34:20.555Z,97214.13
2023-02-06T18:36:48.244Z,97222.84
2023-02-06T18:39:16.201Z,97218.56
2023-02-06T18:42:02.153Z,97224.59
2023-02-06T18:44:31.312Z,97223.19
2023-02-06T18:47:00.738Z,97214.22
2023-02-06T18:49:28.412Z,97223.69
2023-02-06T18:51:56.751Z,97222.88
2023-02-06T18:54:24.328Z,97216.94
2023-02-06T18:56:52.266Z,97212.56
2023-02-06T18:59:19.876Z,97216.44
2023-02-06T19:01:48.177Z,97220.81
2023-02-06T19:04:17.136Z,97219.03
2023-02-06T19:06:46.046Z,97217.31
2023-02-06T19:09:16.121Z,97204.38
2023-02-06T19:11:44.916Z,97213.28
2023-02-06T19:14:15.867Z,97203.91
2023-02-06T19:16:47.230Z,97190.13
2023-02-06T19:19:15.161Z,97184.94
2023-02-06T19:21:45.047Z,97196.13
2023-02-06T19:24:14.537Z,97198.88
2023-02-06T19:26:43.193Z,97192.28
2023-02-06T19:29:14.788Z,97196.63
2023-02-06T19:31:42.776Z,97188.56
2023-02-06T19:34:10.853Z,97194.59
2023-02-06T19:36:39.320Z,97194.69
2023-02-06T19:39:10.279Z,97198.97
2023-02-06T19:41:38.741Z,97192.47
2023-02-06T19:44:08.928Z,97193.22
2023-02-06T19:46:37.346Z,97204.44
2023-02-06T19:49:08.481Z,97208.19
2023-02-06T19:51:38.507Z,97203.19
2023-02-06T19:54:08.220Z,97203.94
2023-02-06T19:56:39.662Z,97213.47
2023-02-06T19:59:17.785Z,97218.53
2023-02-06T20:01:46.579Z,97214.31
2023-02-06T20:04:14.291Z,97220.28
2023-02-06T20:06:43.900Z,97217.50
2023-02-06T20:09:15.468Z,97199.88
2023-02-06T20:11:43.586Z,97194.63
2023-02-06T20:14:13.022Z,97206.78
2023-02-06T20:16:42.618Z,97218.66
2023-02-06T20:19:14.096Z,97221.69
2023-02-06T20:21:43.574Z,97207.19
2023-02-06T20:24:14.627Z,97206.09
2023-02-06T20:26:43.981Z,97204.44
2023-02-06T20:29:19.923Z,97205.69
2023-02-06T20:31:47.696Z,97202.56
2023-02-06T20:34:15.501Z,97194.91
2023-02-06T20:36:44.412Z,97206.03
2023-02-06T20:39:14.457Z,97205.53
2023-02-06T20:41:42.411Z,97204.84
2023-02-06T20:44:12.263Z,97214.16
2023-02-06T20:46:40.570Z,97215.84
2023-02-06T20:49:13.447Z,97215.22
2023-02-06T20:51:41.076Z,97218.22
2023-02-06T20:54:08.790Z,97217.72
2023-02-06T20:56:38.157Z,97223.38
2023-02-06T20:59:06.321Z,97217.19
2023-02-06T21:01:34.694Z,97219.09
2023-02-06T21:04:04.436Z,97223.88
2023-02-06T21:06:33.997Z,97230.16
2023-02-06T21:09:03.071Z,97226.78
2023-02-06T21:11:34.428Z,97218.44
2023-02-06T21:14:06.124Z,97212.50
2023-02-06T21:16:35.343Z,97209.72
2023-02-06T21:19:05.905Z,97201.78
2023-02-06T21:21:33.852Z,97204.38
2023-02-06T21:24:01.508Z,97218.56
2023-02-06T21:26:30.787Z,97222.44
2023-02-06T21:28:59.756Z,97221.28
2023-02-06T21:31:36.047Z,97235.72
2023-02-06T21:34:08.935Z,97238.31
2023-02-06T21:36:38.258Z,97240.31
2023-02-06T21:39:07.045Z,97237.09
2023-02-06T21:41:34.846Z,97222.28
2023-02-06T21:44:02.615Z,97230.41
2023-02-06T21:46:31.775Z,97222.75
2023-02-06T21:49:00.029Z,97210.41
2023-02-06T21:51:28.032Z,97204.16
2023-02-06T21:53:56.444Z,97210.25
2023-02-06T21:56:26.044Z,97204.78
2023-02-06T21:58:53.894Z,97206.38
2023-02-06T22:01:23.383Z,97202.41
2023-02-06T22:03:52.702Z,97217.88
2023-02-06T22:06:21.131Z,97223.81
2023-02-06T22:08:51.699Z,97204.84
2023-02-06T22:11:21.831Z,97198.22
2023-02-06T22:13:50.081Z,97204.38
2023-02-06T22:16:22.769Z,97204.38
2023-02-06T22:18:52.365Z,97206.22
2023-02-06T22:21:21.562Z,97203.72
2023-02-06T22:23:50.529Z,97206.44
2023-02-06T22:26:20.615Z,97217.56
2023-02-06T22:28:48.899Z,97215.84
2023-02-06T22:31:18.672Z,97204.44
2023-02-06T22:33:47.121Z,97189.19
2023-02-06T22:36:17.707Z,97179.31
2023-02-06T22:38:47.189Z,97169.09
2023-02-06T22:41:17.479Z,97168.19
2023-02-06T22:43:46.949Z,97171.78
2023-02-06T22:46:19.477Z,97159.03
2023-02-06T22:48:47.706Z,97171.06
2023-02-06T22:51:17.527Z,97173.66
2023-02-06T22:53:46.285Z,97175.72
2023-02-06T22:56:36.720Z,97178.75
2023-02-06T22:59:06.917Z,97181.56
2023-02-06T23:01:37.021Z,97188.22
2023-02-06T23:04:07.128Z,97186.06
2023-02-06T23:06:36.892Z,97197.94
2023-02-06T23:09:06.555Z,97186.50
2023-02-06T23:11:35.028Z,97187.63
2023-02-06T23:14:04.590Z,97198.94
2023-02-06T23:16:33.976Z,97192.78
2023-02-06T23:19:04.469Z,97207.25
2023-02-06T23:21:33.509Z,97214.19
2023-02-06T23:24:03.101Z,97217.97
2023-02-06T23:26:31.276Z,97210.81
2023-02-06T23:28:59.980Z,97228.19
2023-02-06T23:31:28.212Z,97221.75
2023-02-06T23:33:56.989Z,97227.59
2023-02-06T23:36:26.708Z,97234.75
2023-02-06T23:38:55.461Z,97239.84
2023-02-06T23:41:26.954Z,97242.03
2023-02-06T23:43:56.345Z,97243.97
2023-02-06T23:46:24.708Z,97256.69
2023-02-06T23:48:53.167Z,97264.38
2023-02-06T23:51:21.626Z,97260.66
2023-02-06T23:53:50.552Z,97256.00
2023-02-06T23:56:23.291Z,97257.13
2023-02-06T23:58:54.069Z,97255.44
